Time;durP1;ratioP1;P1;durP2;ratioP2;P2;SDS_P1;SDS_P2;PMS_P1;PMS_P2;Temp;Humidity;BMP_temperature;BMP_pressure;BME280_temperature;BME280_humidity;BME280_pressure;Samples;Min_cycle;Max_cycle;Signal;HPM_P1;HPM_P2
2023/04/13 00:02:14;;;;;;;9.25;4.72;;;12.20;74.60;;;;;;5051835;28;20105;-63
2023/04/13 00:04:41;;;;;;;15.38;5.68;;;12.30;74.70;;;;;;5052233;28;20025;-64
2023/04/13 00:07:15;;;;;;;10.38;4.90;;;12.30;74.20;;;;;;5056374;28;20024;-63
2023/04/13 00:09:41;;;;;;;14.63;5.43;;;12.20;74.30;;;;;;5056105;28;20028;-62
2023/04/13 00:12:09;;;;;;;10.60;4.53;;;12.20;74.60;;;;;;5056424;28;20036;-64
2023/04/13 00:14:35;;;;;;;12.95;4.95;;;12.20;74.80;;;;;;5055781;28;20413;-63
2023/04/13 00:17:01;;;;;;;10.25;4.70;;;12.20;74.90;;;;;;5055951;28;20025;-63
2023/04/13 00:19:27;;;;;;;7.93;4.28;;;12.20;74.90;;;;;;5056035;28;20051;-63
2023/04/13 00:21:53;;;;;;;10.13;4.40;;;12.20;75.60;;;;;;5055744;28;20031;-64
2023/04/13 00:24:19;;;;;;;8.27;4.07;;;12.20;75.60;;;;;;5055611;28;20021;-62
2023/04/13 00:26:45;;;;;;;10.20;4.53;;;12.10;75.60;;;;;;5055930;28;20079;-62
2023/04/13 00:29:11;;;;;;;12.13;4.65;;;12.20;75.90;;;;;;5055746;28;20029;-62
2023/04/13 00:31:36;;;;;;;6.93;4.22;;;12.10;75.90;;;;;;5055332;28;20033;-62
2023/04/13 00:34:03;;;;;;;6.45;4.10;;;12.10;76.00;;;;;;5055726;28;20235;-62
2023/04/13 00:36:28;;;;;;;11.38;4.88;;;12.10;76.10;;;;;;5046617;28;20026;-62
2023/04/13 00:38:56;;;;;;;9.70;4.07;;;12.10;76.10;;;;;;5035731;28;20359;-62
2023/04/13 00:41:23;;;;;;;7.80;4.30;;;12.10;76.60;;;;;;5035343;28;20381;-62
2023/04/13 00:43:49;;;;;;;7.38;4.20;;;12.10;76.30;;;;;;5035303;28;20053;-62
2023/04/13 00:46:16;;;;;;;8.95;3.90;;;12.10;76.90;;;;;;5035592;28;20475;-62
2023/04/13 00:48:42;;;;;;;8.35;4.35;;;12.10;77.20;;;;;;5035694;28;20123;-61
2023/04/13 00:51:08;;;;;;;8.63;4.45;;;12.10;77.50;;;;;;5035686;28;20105;-62
2023/04/13 00:53:33;;;;;;;12.50;5.03;;;12.00;77.40;;;;;;5035036;28;20026;-62
2023/04/13 00:56:00;;;;;;;10.60;4.80;;;12.00;77.60;;;;;;5035460;28;20028;-62
2023/04/13 00:58:26;;;;;;;6.35;4.47;;;12.00;77.50;;;;;;5034926;28;20025;-63
2023/04/13 01:00:52;;;;;;;10.05;4.35;;;12.00;78.00;;;;;;5035543;28;20460;-63
2023/04/13 01:03:18;;;;;;;9.85;4.45;;;12.00;78.20;;;;;;5035011;28;20049;-65
2023/04/13 01:06:02;;;;;;;9.23;4.78;;;12.00;78.10;;;;;;5035866;28;20028;-64
2023/04/13 01:08:37;;;;;;;10.88;4.32;;;12.00;78.10;;;;;;5054858;28;20036;-63
2023/04/13 01:11:10;;;;;;;12.18;4.47;;;12.00;78.40;;;;;;5055258;28;20043;-63
2023/04/13 01:13:43;;;;;;;10.38;4.68;;;12.00;78.50;;;;;;5054395;28;20028;-64
2023/04/13 01:16:21;;;;;;;7.10;4.47;;;11.90;78.40;;;;;;5054559;28;20107;-64
2023/04/13 01:18:52;;;;;;;8.45;4.60;;;12.00;78.30;;;;;;5054959;28;20538;-63
2023/04/13 01:21:23;;;;;;;11.48;4.50;;;12.00;78.20;;;;;;5055077;28;20029;-63
2023/04/13 01:24:07;;;;;;;9.02;5.25;;;12.00;78.00;;;;;;5054983;28;20561;-63
2023/04/13 01:27:03;;;;;;;9.70;5.13;;;12.00;78.40;;;;;;5054511;28;20032;-63
2023/04/13 01:29:29;;;;;;;10.05;5.25;;;11.90;79.00;;;;;;5054420;28;20150;-64
2023/04/13 01:31:56;;;;;;;9.60;5.00;;;11.90;79.30;;;;;;5054830;28;20037;-63
2023/04/13 01:34:23;;;;;;;9.43;5.07;;;11.90;79.90;;;;;;5054564;28;20535;-64
2023/04/13 01:36:49;;;;;;;8.90;5.40;;;11.90;79.90;;;;;;5054887;28;20032;-64
2023/04/13 01:39:19;;;;;;;10.73;5.40;;;11.90;80.00;;;;;;5054868;28;20029;-63
2023/04/13 01:41:45;;;;;;;8.73;4.82;;;11.90;80.40;;;;;;5054795;28;20021;-62
2023/04/13 01:44:11;;;;;;;11.35;5.50;;;11.90;80.50;;;;;;5054345;28;20501;-63
2023/04/13 01:46:45;;;;;;;10.40;5.40;;;11.90;81.20;;;;;;5054151;28;20033;-65
2023/04/13 01:49:13;;;;;;;12.63;5.65;;;11.90;80.20;;;;;;5054434;28;20115;-61
2023/04/13 01:51:44;;;;;;;11.02;5.20;;;11.90;80.30;;;;;;5053848;28;20029;-63
2023/04/13 01:54:16;;;;;;;8.23;4.72;;;11.90;80.70;;;;;;5054456;28;20021;-63
2023/04/13 01:56:42;;;;;;;8.10;4.45;;;11.90;81.10;;;;;;5053587;28;20487;-61
2023/04/13 01:59:08;;;;;;;14.10;5.30;;;11.90;81.90;;;;;;5053933;28;20039;-63
2023/04/13 02:01:36;;;;;;;9.10;5.03;;;11.90;82.70;;;;;;5053828;28;20021;-63
2023/04/13 02:04:02;;;;;;;8.50;5.20;;;11.90;82.60;;;;;;5054175;28;20032;-63
2023/04/13 02:06:28;;;;;;;8.20;5.07;;;11.80;82.80;;;;;;5053779;28;20036;-63
2023/04/13 02:08:53;;;;;;;10.43;5.03;;;11.80;82.90;;;;;;5054049;28;20092;-63
2023/04/13 02:11:20;;;;;;;6.70;4.97;;;11.80;83.10;;;;;;5054293;28;20037;-63
2023/04/13 02:13:46;;;;;;;8.80;3.90;;;11.80;83.50;;;;;;5053539;28;20021;-63
2023/04/13 02:16:11;;;;;;;8.27;3.47;;;11.80;85.40;;;;;;5054090;28;20523;-63
2023/04/13 02:18:37;;;;;;;4.25;3.08;;;11.80;86.90;;;;;;5053539;28;20465;-63
2023/04/13 02:21:11;;;;;;;3.70;1.90;;;11.80;88.50;;;;;;5053718;28;20033;-63
2023/04/13 02:23:39;;;;;;;6.03;2.25;;;11.80;90.80;;;;;;5053219;28;20108;-63
2023/04/13 02:26:09;;;;;;;5.57;1.90;;;11.80;92.10;;;;;;5053704;28;20036;-63
2023/04/13 02:28:34;;;;;;;5.07;2.22;;;11.80;93.20;;;;;;5052425;28;20036;-63
2023/04/13 02:31:02;;;;;;;3.05;1.98;;;11.80;94.40;;;;;;5044369;28;20370;-63
2023/04/13 02:33:31;;;;;;;3.88;2.25;;;11.80;95.00;;;;;;5033199;28;20026;-63
2023/04/13 02:36:02;;;;;;;3.42;2.30;;;11.80;96.10;;;;;;5033169;28;20112;-63
2023/04/13 02:38:28;;;;;;;;;;;11.70;96.80;;;;;;5033646;28;20096;-63
2023/04/13 02:40:56;;;;;;;4.82;2.45;;;11.80;97.60;;;;;;5033439;28;19905;-63
2023/04/13 02:43:22;;;;;;;3.50;2.90;;;11.70;97.80;;;;;;5032971;28;20033;-63
2023/04/13 02:45:48;;;;;;;4.70;3.28;;;11.70;98.60;;;;;;5033167;28;20463;-63
2023/04/13 02:48:14;;;;;;;4.93;3.10;;;11.70;99.10;;;;;;5033292;28;20037;-63
2023/04/13 02:50:40;;;;;;;5.40;2.42;;;11.70;99.90;;;;;;5032904;28;20528;-63
2023/04/13 02:53:06;;;;;;;4.43;3.00;;;11.70;99.90;;;;;;5033254;28;20644;-63
2023/04/13 02:55:32;;;;;;;4.53;3.47;;;11.70;99.90;;;;;;5032735;28;20033;-63
2023/04/13 02:57:58;;;;;;;6.57;3.78;;;11.70;99.90;;;;;;5033218;28;20149;-63
2023/04/13 03:00:24;;;;;;;8.27;4.05;;;11.70;99.90;;;;;;5033213;28;20430;-63
2023/04/13 03:02:51;;;;;;;12.10;4.38;;;11.70;99.90;;;;;;5032648;28;20034;-63
2023/04/13 03:05:18;;;;;;;8.25;3.90;;;11.60;99.90;;;;;;5043995;28;20377;-63
2023/04/13 03:07:44;;;;;;;7.40;5.03;;;11.60;99.90;;;;;;5052460;28;20039;-63
2023/04/13 03:10:10;;;;;;;8.35;4.85;;;11.60;99.90;;;;;;5052834;28;20028;-63
2023/04/13 03:12:36;;;;;;;7.47;4.85;;;11.60;99.90;;;;;;5052473;28;20134;-64
2023/04/13 03:15:03;;;;;;;7.55;5.05;;;11.60;99.90;;;;;;5053002;28;20462;-63
2023/04/13 03:17:30;;;;;;;7.13;5.40;;;11.60;99.90;;;;;;5051868;28;20515;-63
2023/04/13 03:19:56;;;;;;;8.45;5.38;;;11.60;99.90;;;;;;5052707;28;20033;-63
2023/04/13 03:22:22;;;;;;;8.43;5.50;;;11.50;99.90;;;;;;5052753;28;20033;-63
2023/04/13 03:24:48;;;;;;;8.38;6.07;;;11.50;99.90;;;;;;5052311;28;20431;-63
2023/04/13 03:27:14;;;;;;;7.65;6.07;;;11.50;99.90;;;;;;5052673;28;20453;-63
2023/04/13 03:29:40;;;;;;;10.60;6.90;;;11.50;99.90;;;;;;5052388;28;20120;-64
2023/04/13 03:32:06;;;;;;;10.10;6.50;;;11.40;99.90;;;;;;5052928;28;20125;-63
2023/04/13 03:34:32;;;;;;;10.63;6.35;;;11.40;99.90;;;;;;5052154;28;20043;-62
2023/04/13 03:36:57;;;;;;;9.48;7.00;;;11.40;99.90;;;;;;5052638;28;20025;-63
2023/04/13 03:39:23;;;;;;;7.65;6.47;;;11.40;99.90;;;;;;5052548;28;20025;-62
2023/04/13 03:41:49;;;;;;;10.40;7.07;;;11.40;99.90;;;;;;5052189;28;20083;-62
2023/04/13 03:44:15;;;;;;;8.20;6.78;;;11.40;99.90;;;;;;5052541;28;20440;-62
2023/04/13 03:46:41;;;;;;;9.75;6.75;;;11.40;99.90;;;;;;5052236;28;20021;-62
2023/04/13 03:49:08;;;;;;;8.10;6.75;;;11.40;99.90;;;;;;5052427;28;20040;-62
2023/04/13 03:51:37;;;;;;;7.10;6.40;;;11.30;99.90;;;;;;5051770;28;20029;-61
2023/04/13 03:54:03;;;;;;;8.90;6.78;;;11.30;99.90;;;;;;5052328;28;20448;-63
2023/04/13 03:56:30;;;;;;;8.32;6.78;;;11.30;99.90;;;;;;5052508;28;20107;-61
2023/04/13 03:58:56;;;;;;;8.30;6.45;;;11.30;99.90;;;;;;5051246;28;20059;-62
2023/04/13 04:01:25;;;;;;;10.27;6.70;;;11.30;99.90;;;;;;5052265;28;20036;-62
2023/04/13 04:03:54;;;;;;;8.30;6.30;;;11.20;99.90;;;;;;5051975;28;20037;-62
2023/04/13 04:06:20;;;;;;;7.07;5.95;;;11.20;99.90;;;;;;5052336;28;20362;-62
2023/04/13 04:08:48;;;;;;;8.00;5.95;;;11.20;99.90;;;;;;5051830;28;20035;-62
2023/04/13 04:11:17;;;;;;;8.10;6.13;;;11.20;99.90;;;;;;5052526;28;20091;-62
2023/04/13 04:13:42;;;;;;;11.07;6.05;;;11.10;99.90;;;;;;5052064;28;20135;-62
2023/04/13 04:16:10;;;;;;;6.80;5.80;;;11.10;99.90;;;;;;5052290;28;20053;-62
2023/04/13 04:18:36;;;;;;;6.15;5.55;;;11.10;99.90;;;;;;5051926;28;20036;-62
2023/04/13 04:21:02;;;;;;;6.95;5.95;;;11.00;99.90;;;;;;5052237;28;20033;-62
2023/04/13 04:23:28;;;;;;;8.02;5.97;;;11.00;99.90;;;;;;5052295;28;20033;-63
2023/04/13 04:25:58;;;;;;;5.55;4.95;;;11.00;99.90;;;;;;5051559;28;20036;-62
2023/04/13 04:28:24;;;;;;;8.23;5.63;;;11.00;99.90;;;;;;5052314;28;20428;-62
2023/04/13 04:30:53;;;;;;;5.30;4.80;;;11.00;99.90;;;;;;5051460;28;20049;-62
2023/04/13 04:33:21;;;;;;;5.95;4.72;;;11.00;99.90;;;;;;5052193;28;20064;-62
2023/04/13 04:35:51;;;;;;;4.45;4.00;;;11.00;99.90;;;;;;5047943;28;20021;-62
2023/04/13 04:38:17;;;;;;;4.82;4.32;;;11.00;99.90;;;;;;5033566;28;20065;-63
2023/04/13 04:40:46;;;;;;;6.18;4.60;;;11.00;99.90;;;;;;5032067;28;20033;-63
2023/04/13 04:43:13;;;;;;;6.32;4.47;;;11.00;99.90;;;;;;5031874;28;20025;-63
2023/04/13 04:45:42;;;;;;;5.40;3.83;;;10.90;99.90;;;;;;5031823;28;20053;-63
2023/04/13 04:48:08;;;;;;;5.78;4.13;;;11.00;99.90;;;;;;5031943;28;20123;-63
2023/04/13 04:50:36;;;;;;;4.28;3.35;;;11.00;99.90;;;;;;5032030;28;20454;-69
2023/04/13 04:53:02;;;;;;;3.25;2.80;;;11.00;99.90;;;;;;5035510;28;20021;-63
2023/04/13 04:55:28;;;;;;;3.40;3.10;;;11.00;99.90;;;;;;5035262;28;20029;-62
2023/04/13 04:57:53;;;;;;;3.78;3.15;;;11.00;99.90;;;;;;5034798;28;20389;-63
2023/04/13 05:00:19;;;;;;;4.15;3.15;;;11.00;99.90;;;;;;5035441;28;20469;-63
2023/04/13 05:02:46;;;;;;;5.05;2.70;;;11.00;99.90;;;;;;5035170;28;20375;-63
2023/04/13 05:05:13;;;;;;;2.95;2.55;;;11.00;99.90;;;;;;5035367;28;20429;-63
2023/04/13 05:07:38;;;;;;;3.13;2.83;;;10.90;99.90;;;;;;5053615;28;20029;-63
2023/04/13 05:10:06;;;;;;;4.18;2.83;;;11.00;99.90;;;;;;5055170;28;20029;-62
2023/04/13 05:12:32;;;;;;;3.30;2.55;;;11.00;99.90;;;;;;5055345;28;20416;-62
2023/04/13 05:14:57;;;;;;;3.15;2.22;;;11.00;99.90;;;;;;5054858;28;20078;-61
2023/04/13 05:17:24;;;;;;;4.70;2.08;;;11.00;99.90;;;;;;5055221;28;20021;-62
2023/04/13 05:19:50;;;;;;;4.70;1.60;;;11.00;99.90;;;;;;5054647;28;20458;-62
2023/04/13 05:22:17;;;;;;;2.22;1.50;;;11.00;99.90;;;;;;5055400;28;20025;-62
2023/04/13 05:24:42;;;;;;;2.08;1.55;;;10.90;99.90;;;;;;5053866;28;20021;-62
2023/04/13 05:27:08;;;;;;;2.90;1.45;;;10.90;99.90;;;;;;5054986;28;20378;-62
2023/04/13 05:29:34;;;;;;;2.25;1.83;;;10.90;99.90;;;;;;5054809;28;20036;-62
2023/04/13 05:32:01;;;;;;;2.38;1.60;;;10.80;99.90;;;;;;5053339;28;20572;-62
2023/04/13 05:34:27;;;;;;;2.05;1.33;;;10.80;99.90;;;;;;5054783;28;20024;-62
2023/04/13 05:36:53;;;;;;;2.17;1.60;;;10.80;99.90;;;;;;5054364;28;20036;-63
2023/04/13 05:39:23;;;;;;;2.35;1.20;;;10.80;99.90;;;;;;5053422;28;20029;-62
2023/04/13 05:41:48;;;;;;;4.75;1.60;;;10.80;99.90;;;;;;5054244;28;20100;-62
2023/04/13 05:44:14;;;;;;;2.38;1.23;;;10.80;99.90;;;;;;5054104;28;20045;-64
2023/04/13 05:46:40;;;;;;;1.77;1.63;;;10.80;99.90;;;;;;5054193;28;20017;-62
2023/04/13 05:49:06;;;;;;;2.47;1.38;;;10.80;99.90;;;;;;5054584;28;20025;-63
2023/04/13 05:51:32;;;;;;;4.97;1.50;;;10.80;99.90;;;;;;5053301;28;20103;-62
2023/04/13 05:53:58;;;;;;;2.13;1.45;;;10.80;99.90;;;;;;5054231;28;20310;-63
2023/04/13 05:56:24;;;;;;;2.63;1.17;;;10.80;99.90;;;;;;5054335;28;20057;-62
2023/04/13 05:58:51;;;;;;;2.38;1.50;;;10.80;99.90;;;;;;5053977;28;20033;-63
2023/04/13 06:01:18;;;;;;;3.15;1.75;;;10.80;99.90;;;;;;5053943;28;20461;-63
2023/04/13 06:03:45;;;;;;;2.47;1.60;;;10.70;99.90;;;;;;5052617;28;20029;-62
2023/04/13 06:06:11;;;;;;;3.20;1.55;;;10.70;99.90;;;;;;5054077;28;20032;-64
2023/04/13 06:08:37;;;;;;;1.40;1.30;;;10.70;99.90;;;;;;5054419;28;20029;-62
2023/04/13 06:11:05;;;;;;;2.40;1.40;;;10.70;99.90;;;;;;5053654;28;20493;-62
2023/04/13 06:13:31;;;;;;;2.33;1.25;;;10.70;99.90;;;;;;5054105;28;20029;-65
2023/04/13 06:15:57;;;;;;;2.10;1.13;;;10.70;99.90;;;;;;5053624;28;20062;-63
2023/04/13 06:18:26;;;;;;;1.67;1.17;;;10.60;99.90;;;;;;5054049;28;20100;-62
2023/04/13 06:20:52;;;;;;;3.45;1.15;;;10.60;99.90;;;;;;5053810;28;20028;-63
2023/04/13 06:23:17;;;;;;;2.85;1.25;;;10.60;99.90;;;;;;5054095;28;20058;-63
2023/04/13 06:25:44;;;;;;;6.40;1.60;;;10.50;99.90;;;;;;5053421;28;20029;-63
2023/04/13 06:28:10;;;;;;;1.48;1.05;;;10.50;99.90;;;;;;5053546;28;20112;-62
2023/04/13 06:30:36;;;;;;;1.98;1.63;;;10.50;99.90;;;;;;5053687;28;20037;-63
2023/04/13 06:33:03;;;;;;;2.80;1.33;;;10.50;99.90;;;;;;5053400;28;20405;-63
2023/04/13 06:35:29;;;;;;;3.95;1.50;;;10.50;99.90;;;;;;5053486;28;20029;-62
2023/04/13 06:37:58;;;;;;;2.15;1.45;;;10.50;99.90;;;;;;5053100;28;20029;-62
2023/04/13 06:40:24;;;;;;;3.05;1.67;;;10.50;99.90;;;;;;5053143;28;20040;-63
2023/04/13 06:42:50;;;;;;;7.55;1.80;;;10.50;99.90;;;;;;5048858;28;20033;-63
2023/04/13 06:45:16;;;;;;;2.38;1.50;;;10.50;99.90;;;;;;5033731;28;20119;-63
2023/04/13 06:47:42;;;;;;;2.03;1.10;;;10.50;99.90;;;;;;5033387;28;20036;-62
2023/04/13 06:50:12;;;;;;;3.05;1.17;;;10.50;99.90;;;;;;5033648;28;20382;-62
2023/04/13 06:52:40;;;;;;;2.20;1.00;;;10.50;99.90;;;;;;5033674;28;20036;-63
2023/04/13 06:55:06;;;;;;;1.35;0.88;;;10.50;99.90;;;;;;5032831;28;20414;-63
2023/04/13 06:57:32;;;;;;;1.33;1.13;;;10.50;99.90;;;;;;5032166;28;20074;-63
2023/04/13 06:59:58;;;;;;;1.70;1.20;;;10.50;99.90;;;;;;5032966;28;20033;-63
2023/04/13 07:02:25;;;;;;;1.75;1.00;;;10.50;99.90;;;;;;5033229;28;20029;-63
2023/04/13 07:04:51;;;;;;;1.98;1.25;;;10.50;99.90;;;;;;5032864;28;20043;-63
2023/04/13 07:07:17;;;;;;;1.50;1.00;;;10.50;99.90;;;;;;5033318;28;20025;-63
2023/04/13 07:09:43;;;;;;;3.00;1.00;;;10.50;99.90;;;;;;5033138;28;20466;-62
2023/04/13 07:12:09;;;;;;;8.48;1.50;;;10.40;99.90;;;;;;5033155;28;20113;-62
2023/04/13 07:14:36;;;;;;;5.88;1.67;;;10.40;99.90;;;;;;5032669;28;20104;-61
2023/04/13 07:17:03;;;;;;;3.40;1.45;;;10.40;99.90;;;;;;5046396;28;20425;-62
2023/04/13 07:19:33;;;;;;;3.45;1.20;;;10.40;99.90;;;;;;5052594;28;20056;-62
2023/04/13 07:21:59;;;;;;;2.17;1.40;;;10.40;99.90;;;;;;5052288;28;20537;-62
2023/04/13 07:24:27;;;;;;;1.85;1.23;;;10.40;99.90;;;;;;5052882;28;20025;-62
2023/04/13 07:26:56;;;;;;;1.05;0.95;;;10.40;99.90;;;;;;5052302;28;20024;-64
2023/04/13 07:29:23;;;;;;;1.90;1.10;;;10.40;99.90;;;;;;5053302;28;20055;-63
2023/04/13 07:31:49;;;;;;;2.92;1.45;;;10.40;99.90;;;;;;5052534;28;20037;-63
2023/04/13 07:34:15;;;;;;;3.13;1.40;;;10.30;99.90;;;;;;5053139;28;20028;-62
2023/04/13 07:36:41;;;;;;;3.63;1.55;;;10.40;99.90;;;;;;5052630;28;20048;-62
2023/04/13 07:39:08;;;;;;;2.65;1.48;;;10.40;99.90;;;;;;5052226;28;20385;-62
2023/04/13 07:41:34;;;;;;;3.15;1.60;;;10.40;99.90;;;;;;5052709;28;20021;-62
2023/04/13 07:44:01;;;;;;;1.75;1.05;;;10.40;99.90;;;;;;5051947;28;20048;-62
2023/04/13 07:46:26;;;;;;;1.35;1.10;;;10.40;99.90;;;;;;5052653;28;20021;-62
2023/04/13 07:48:55;;;;;;;1.88;1.13;;;10.40;99.90;;;;;;5052160;28;20147;-62
2023/04/13 07:51:21;;;;;;;1.35;0.98;;;10.40;99.90;;;;;;5052372;28;20039;-62
2023/04/13 07:53:47;;;;;;;2.05;1.00;;;10.40;99.90;;;;;;5052278;28;20037;-71
2023/04/13 07:56:13;;;;;;;2.03;0.88;;;10.30;99.90;;;;;;5052646;28;20025;-63
2023/04/13 07:58:39;;;;;;;5.10;1.17;;;10.30;99.90;;;;;;5052566;28;20036;-61
2023/04/13 08:01:05;;;;;;;3.30;0.80;;;10.30;99.90;;;;;;5052030;28;20098;-62
2023/04/13 08:03:31;;;;;;;1.00;0.90;;;10.30;99.90;;;;;;5052638;28;20453;-62
2023/04/13 08:05:57;;;;;;;2.08;0.93;;;10.30;99.90;;;;;;5052067;28;20025;-62
2023/04/13 08:08:23;;;;;;;1.35;0.80;;;10.30;99.90;;;;;;5052404;28;20040;-62
2023/04/13 08:10:49;;;;;;;2.33;0.90;;;10.30;99.90;;;;;;5052069;28;20029;-64
2023/04/13 08:13:15;;;;;;;1.52;0.80;;;10.30;99.90;;;;;;5052352;28;20051;-63
2023/04/13 08:15:41;;;;;;;3.90;1.00;;;10.20;99.90;;;;;;5052320;28;20533;-62
2023/04/13 08:18:07;;;;;;;1.23;0.77;;;10.20;99.90;;;;;;5051723;28;20112;-62
2023/04/13 08:20:34;;;;;;;2.53;0.82;;;10.20;99.90;;;;;;5052190;28;20497;-62
2023/04/13 08:23:00;;;;;;;1.10;0.80;;;10.30;99.90;;;;;;5051469;28;20025;-63
2023/04/13 08:25:27;;;;;;;1.48;0.93;;;10.20;99.90;;;;;;5051991;28;20025;-63
2023/04/13 08:27:53;;;;;;;3.38;1.20;;;10.20;99.90;;;;;;5055389;28;20020;-63
2023/04/13 08:30:18;;;;;;;1.73;0.85;;;10.20;99.90;;;;;;5055931;28;20040;-63
2023/04/13 08:32:45;;;;;;;1.58;0.80;;;10.20;99.90;;;;;;5055939;28;20381;-62
2023/04/13 08:35:11;;;;;;;1.30;0.75;;;10.10;99.90;;;;;;5042803;28;20033;-62
2023/04/13 08:37:38;;;;;;;0.80;0.65;;;10.10;99.90;;;;;;5036014;28;20087;-63
2023/04/13 08:40:06;;;;;;;0.98;0.80;;;10.10;99.90;;;;;;5035456;28;20395;-63
2023/04/13 08:42:33;;;;;;;1.20;0.85;;;10.10;99.90;;;;;;5035823;28;20029;-62
2023/04/13 08:45:02;;;;;;;2.15;0.98;;;10.10;99.90;;;;;;5035041;28;20124;-63
2023/04/13 08:47:28;;;;;;;1.67;0.80;;;10.20;99.90;;;;;;5035664;28;20029;-62
2023/04/13 08:49:58;;;;;;;2.50;0.80;;;10.20;99.90;;;;;;5034890;28;20478;-62
2023/04/13 08:52:25;;;;;;;1.27;0.73;;;10.20;99.90;;;;;;5035718;28;20049;-63
2023/04/13 08:54:53;;;;;;;2.85;0.80;;;10.20;99.90;;;;;;5035307;28;20034;-63
2023/04/13 08:57:20;;;;;;;0.88;0.65;;;10.30;99.90;;;;;;5035519;28;20348;-63
2023/04/13 08:59:51;;;;;;;2.72;1.10;;;10.30;99.90;;;;;;5035324;28;20116;-62
2023/04/13 09:02:23;;;;;;;0.98;0.80;;;10.30;99.90;;;;;;5035298;28;20105;-63
2023/04/13 09:04:52;;;;;;;0.85;0.85;;;10.40;99.90;;;;;;5035112;28;20497;-62
2023/04/13 09:07:33;;;;;;;1.70;1.15;;;10.40;99.90;;;;;;5035248;28;20038;-63
2023/04/13 09:09:59;;;;;;;1.40;1.00;;;10.40;99.90;;;;;;5034711;28;20087;-63
2023/04/13 09:12:26;;;;;;;4.05;1.30;;;10.40;99.90;;;;;;5035153;28;20036;-63
2023/04/13 09:14:52;;;;;;;1.33;1.00;;;10.50;99.90;;;;;;5036431;28;20462;-62
2023/04/13 09:17:31;;;;;;;1.23;0.82;;;10.50;99.90;;;;;;5054631;28;20033;-61
2023/04/13 09:20:11;;;;;;;1.63;1.10;;;10.50;99.90;;;;;;5054564;28;20089;-62
2023/04/13 09:22:36;;;;;;;1.35;0.88;;;10.50;99.90;;;;;;5055048;28;20115;-62
2023/04/13 09:25:04;;;;;;;1.33;0.82;;;10.50;99.90;;;;;;5054239;28;20506;-62
2023/04/13 09:27:30;;;;;;;1.23;0.80;;;10.50;99.90;;;;;;5054381;28;20473;-62
2023/04/13 09:29:56;;;;;;;2.25;0.80;;;10.50;99.90;;;;;;5053878;28;20028;-62
2023/04/13 09:32:23;;;;;;;1.05;0.90;;;10.60;99.90;;;;;;5054708;28;20033;-62
2023/04/13 09:35:00;;;;;;;1.60;1.10;;;10.50;99.90;;;;;;5054679;28;20102;-62
2023/04/13 09:37:27;;;;;;;1.50;1.00;;;10.60;99.90;;;;;;5054434;28;20025;-62
2023/04/13 09:39:53;;;;;;;0.85;0.68;;;10.60;99.90;;;;;;5053239;28;20458;-62
2023/04/13 09:42:19;;;;;;;1.20;0.88;;;10.60;99.90;;;;;;5053805;28;20467;-62
2023/04/13 09:44:57;;;;;;;1.10;0.80;;;10.60;99.90;;;;;;5054398;28;20059;-62
2023/04/13 09:47:24;;;;;;;1.80;1.05;;;10.70;99.90;;;;;;5054425;28;20029;-62
2023/04/13 09:49:51;;;;;;;2.10;1.02;;;10.70;99.90;;;;;;5054346;28;20032;-63
2023/04/13 09:52:24;;;;;;;3.25;1.40;;;10.70;99.90;;;;;;5054024;28;20473;-62
2023/04/13 09:54:50;;;;;;;1.55;0.90;;;10.70;99.90;;;;;;5054557;28;20029;-61
2023/04/13 09:57:24;;;;;;;2.35;1.17;;;10.80;99.90;;;;;;5053940;28;20680;-62
2023/04/13 09:59:51;;;;;;;1.13;0.82;;;10.80;99.90;;;;;;5054388;28;20033;-63
2023/04/13 10:02:18;;;;;;;3.50;1.60;;;10.80;99.90;;;;;;5053855;28;20032;-63
2023/04/13 10:04:44;;;;;;;3.70;1.00;;;10.90;99.90;;;;;;5054356;28;20040;-62
2023/04/13 10:07:12;;;;;;;1.83;1.00;;;10.90;99.90;;;;;;5053735;28;20454;-63
2023/04/13 10:09:38;;;;;;;1.30;1.00;;;10.90;99.90;;;;;;5054067;28;20033;-63
2023/04/13 10:12:05;;;;;;;1.10;1.00;;;10.90;99.90;;;;;;5053659;28;20040;-63
2023/04/13 10:14:35;;;;;;;1.08;0.90;;;11.00;99.90;;;;;;5054031;28;20112;-63
2023/04/13 10:17:10;;;;;;;1.10;1.00;;;11.10;99.90;;;;;;5053598;28;20063;-64
2023/04/13 10:19:45;;;;;;;1.98;1.25;;;11.10;99.90;;;;;;5053894;28;20029;-62
2023/04/13 10:22:12;;;;;;;4.03;1.00;;;11.20;99.90;;;;;;5052251;28;20028;-63
2023/04/13 10:24:40;;;;;;;2.20;1.05;;;11.20;99.90;;;;;;5053429;28;20027;-62
2023/04/13 10:27:26;;;;;;;2.35;1.30;;;11.20;99.90;;;;;;5053277;28;20450;-62
2023/04/13 10:29:52;;;;;;;6.68;1.23;;;11.30;99.90;;;;;;5053638;28;20025;-62
2023/04/13 10:32:26;;;;;;;2.70;1.00;;;11.30;99.90;;;;;;5053249;28;20112;-63
2023/04/13 10:34:52;;;;;;;1.52;0.90;;;11.40;99.90;;;;;;5053596;28;20025;-62
2023/04/13 10:37:22;;;;;;;1.15;0.90;;;11.40;99.90;;;;;;5053375;28;20415;-63
2023/04/13 10:39:48;;;;;;;1.90;1.20;;;11.40;99.90;;;;;;5050987;28;20611;-63
2023/04/13 10:42:14;;;;;;;1.17;0.82;;;11.30;99.90;;;;;;5052383;28;20461;-63
2023/04/13 10:44:44;;;;;;;0.90;0.85;;;11.30;99.90;;;;;;5053210;28;20056;-65
2023/04/13 10:47:11;;;;;;;1.80;1.08;;;11.30;99.90;;;;;;5052508;28;20388;-63
2023/04/13 10:49:37;;;;;;;1.48;0.80;;;11.20;99.90;;;;;;5052961;28;20047;-62
2023/04/13 10:52:03;;;;;;;1.08;0.90;;;11.20;99.90;;;;;;5053528;28;20486;-62
2023/04/13 10:54:29;;;;;;;1.98;0.82;;;11.20;99.90;;;;;;5053890;28;20031;-62
2023/04/13 10:57:00;;;;;;;3.70;0.98;;;11.20;99.90;;;;;;5053069;28;20412;-64
2023/04/13 10:59:41;;;;;;;;;;;11.20;99.90;;;;;;5053368;28;20037;-62
2023/04/13 11:02:11;;;;;;;0.80;0.60;;;11.20;99.90;;;;;;5052611;28;19909;-63
2023/04/13 11:04:45;;;;;;;1.60;0.77;;;11.10;99.90;;;;;;5052953;28;20037;-62
2023/04/13 11:07:13;;;;;;;1.20;0.77;;;11.10;99.90;;;;;;5052437;28;20065;-62
2023/04/13 11:09:39;;;;;;;2.25;1.00;;;11.00;99.90;;;;;;5052754;28;20056;-62
2023/04/13 11:12:09;;;;;;;2.03;1.00;;;11.00;99.90;;;;;;5052172;28;20033;-62
2023/04/13 11:14:37;;;;;;;1.92;0.95;;;11.00;99.90;;;;;;5052564;28;20031;-61
2023/04/13 11:17:05;;;;;;;1.63;0.75;;;11.00;99.90;;;;;;5052046;28;20025;-64
2023/04/13 11:19:30;;;;;;;1.30;0.80;;;10.90;99.90;;;;;;5052577;28;20057;-62
2023/04/13 11:21:56;;;;;;;1.08;0.98;;;10.90;99.90;;;;;;5052445;28;20079;-62
2023/04/13 11:24:26;;;;;;;2.55;1.00;;;10.90;99.90;;;;;;5051854;28;20276;-62
2023/04/13 11:26:53;;;;;;;1.95;1.00;;;10.80;99.90;;;;;;5052593;28;20462;-62
2023/04/13 11:29:21;;;;;;;4.20;1.13;;;10.80;99.90;;;;;;5052158;28;20021;-62
2023/04/13 11:31:47;;;;;;;1.58;1.20;;;10.70;99.90;;;;;;5052417;28;20418;-62
2023/04/13 11:34:24;;;;;;;1.23;0.90;;;10.70;99.90;;;;;;5052055;28;20028;-62
2023/04/13 11:37:00;;;;;;;3.58;1.00;;;10.70;99.90;;;;;;5052488;28;20102;-62
2023/04/13 11:39:27;;;;;;;4.10;1.27;;;10.60;99.90;;;;;;5052306;28;20032;-62
2023/04/13 11:41:53;;;;;;;2.13;1.10;;;10.60;99.90;;;;;;5052369;28;20033;-62
2023/04/13 11:44:18;;;;;;;1.38;1.00;;;10.50;99.90;;;;;;5051579;28;20064;-62
2023/04/13 11:46:44;;;;;;;2.97;1.08;;;10.50;99.90;;;;;;5052664;28;20056;-62
2023/04/13 11:49:11;;;;;;;1.35;1.00;;;10.50;99.90;;;;;;5051747;28;20120;-62
2023/04/13 11:51:37;;;;;;;2.13;1.30;;;10.40;99.90;;;;;;5052302;28;20033;-63
2023/04/13 11:54:05;;;;;;;1.45;1.25;;;10.50;99.90;;;;;;5052176;28;20025;-63
2023/04/13 11:56:31;;;;;;;1.90;1.15;;;10.40;99.90;;;;;;5051816;28;20033;-63
2023/04/13 11:58:57;;;;;;;1.92;1.20;;;10.40;99.90;;;;;;5050615;28;20041;-63
2023/04/13 12:01:23;;;;;;;1.52;1.20;;;10.30;99.90;;;;;;5054565;28;20461;-63
2023/04/13 12:03:48;;;;;;;2.65;1.20;;;10.20;99.90;;;;;;5056552;28;20032;-63
2023/04/13 12:06:15;;;;;;;1.65;1.10;;;10.20;99.90;;;;;;5056007;28;20028;-63
2023/04/13 12:08:41;;;;;;;1.17;1.00;;;10.20;99.90;;;;;;5056193;28;20064;-63
2023/04/13 12:11:08;;;;;;;3.58;1.08;;;10.10;99.90;;;;;;5055910;28;20106;-63
2023/04/13 12:13:44;;;;;;;2.63;1.20;;;10.10;99.90;;;;;;5056039;28;20027;-64
2023/04/13 12:16:11;;;;;;;3.03;0.90;;;10.00;99.90;;;;;;5055568;28;20029;-63
2023/04/13 12:18:44;;;;;;;1.88;1.00;;;10.10;99.90;;;;;;5056050;28;20075;-63
2023/04/13 12:21:17;;;;;;;1.88;0.90;;;10.00;99.90;;;;;;5055808;28;20028;-63
2023/04/13 12:23:57;;;;;;;1.58;0.90;;;9.90;99.90;;;;;;5056004;28;20052;-62
2023/04/13 12:26:35;;;;;;;1.70;1.20;;;9.90;99.90;;;;;;5055537;28;20029;-62
2023/04/13 12:29:04;;;;;;;3.95;1.05;;;9.90;99.90;;;;;;5055889;28;20413;-63
2023/04/13 12:31:34;;;;;;;1.77;0.98;;;9.90;99.90;;;;;;5055296;28;20040;-63
2023/04/13 12:34:00;;;;;;;2.67;1.23;;;9.90;99.90;;;;;;5055708;28;20029;-63
2023/04/13 12:36:30;;;;;;;2.88;0.93;;;9.90;99.90;;;;;;5055029;28;20116;-63
2023/04/13 12:38:56;;;;;;;2.83;1.10;;;9.90;99.90;;;;;;5055858;28;20041;-62
2023/04/13 12:41:22;;;;;;;2.20;1.05;;;9.90;99.90;;;;;;5055349;28;20086;-63
2023/04/13 12:43:47;;;;;;;1.20;1.00;;;9.90;99.90;;;;;;5055528;28;20041;-63
2023/04/13 12:46:13;;;;;;;3.63;1.17;;;9.90;99.90;;;;;;5055152;28;20059;-63
2023/04/13 12:48:39;;;;;;;1.85;1.30;;;9.90;99.90;;;;;;5044003;28;20466;-63